This is the latest recevied weather packets stored in our database for station/object WA6GRA. If no packets are shown the sender has not sent any weather packets the latest 10 day(s).
| Time | Temp. | Humidity | Pressure | Rain* | Wind** | Luminosity | Snow |
|---|---|---|---|---|---|---|---|
| 1777868659 | 18.33° C | 62% | 1011.5 hPa | 0 mm | - | 0 W/m² | - |
| 1777868058 | 18.33° C | 64% | 1011.1 hPa | 0 mm | - | 0 W/m² | - |
| 1777867452 | 18.89° C | 63% | 1010.9 hPa | 0 mm | - | 0 W/m² | - |
| 1777866851 | 19.44° C | 62% | 1011 hPa | 0 mm | - | 0 W/m² | - |
| 1777866251 | 20° C | 60% | 1010.6 hPa | 0 mm | - | 0 W/m² | - |
| 1777865646 | 20.56° C | 58% | 1010.3 hPa | 0 mm | - | 0 W/m² | - |
| 1777865045 | 20.56° C | 58% | 1010 hPa | 0 mm | - | 0 W/m² | - |
| 1777864445 | 21.11° C | 57% | 1010.1 hPa | 0 mm | - | 0 W/m² | - |
| 1777863844 | 21.67° C | 56% | 1009.7 hPa | 0 mm | - | 0 W/m² | - |
| 1777863243 | 21.67° C | 54% | 1009.5 hPa | 0 mm | - | 1 W/m² | - |
| 1777862642 | 21.67° C | 54% | 1009.5 hPa | 0 mm | - | 5 W/m² | - |
| 1777862042 | 22.22° C | 53% | 1009.2 hPa | 0 mm | - | 11 W/m² | - |
| 1777861440 | 22.22° C | 51% | 1009 hPa | 0 mm | - | 20 W/m² | - |
| 1777860839 | 22.78° C | 51% | 1009 hPa | 0 mm | - | 31 W/m² | - |
| 1777860239 | 22.78° C | 50% | 1008.9 hPa | 0 mm | - | 42 W/m² | - |
| 1777859637 | 23.33° C | 49% | 1008.9 hPa | 0 mm | - | 57 W/m² | - |
| 1777859035 | 23.33° C | 48% | 1008.7 hPa | 0 mm | - | 68 W/m² | - |
| 1777858431 | 23.33° C | 48% | 1009 hPa | 0 mm | - | 97 W/m² | - |
| 1777857831 | 23.33° C | 47% | 1009 hPa | 0 mm | - | 119 W/m² | - |
| 1777857230 | 23.33° C | 47% | 1009.2 hPa | 0 mm | - | 163 W/m² | - |
| 1777856628 | 23.33° C | 47% | 1009.1 hPa | 0 mm | - | 198 W/m² | - |
| 1777856027 | 22.78° C | 49% | 1009.2 hPa | 0 mm | - | 188 W/m² | - |
| 1777855423 | 23.33° C | 48% | 1009.1 hPa | 0 mm | - | 94 W/m² | - |
| 1777854822 | 22.78° C | 49% | 1009.4 hPa | 0 mm | - | 198 W/m² | - |
| 1777854220 | 23.33° C | 47% | 1009.2 hPa | 0 mm | - | 172 W/m² | - |
* Rain latest hour (hover to see other rain measurements)
** Current wind speed in m/s (hover to see current wind gust speed)